Aérodrome :
LOGIN :

S'inscrire | Disclaimer

   EN    FR    IT 

 










Légende :    VFR   VFR Marginal   IFR   IFR Intensif   IFR Très Intensif
Visi : 
Plafond : 
>= 8 km
>= 3000ft
5 à 8 km
1000 à 3000 ft
1500m à 5 km
500 à 1000 ft
800 à 1500m
200 à 500 ft
< 800m
< 200 ft
Symboles :   Orages  Brouillard  Fortes neiges  Fortes précipitations  Vent > 20 kt
SIGMETs :   Divers  Orages  Givrage  Turbulence  Onde Orograph.  Cendres Volcan.






- Altitude de l'aérodrome : 1768 ft


LEHC - Huesca Pirineos

DERNIER METAR :
  • 101830Z AUTO 11006KT 080V150 9999 FEW047 12/08 Q1012

METARs EXPIRÉS :
  • 101800Z AUTO 10007KT 080V140 CAVOK 13/08 Q1012
  • 101730Z AUTO 12008KT 080V150 9999 -RA FEW050 13/08 Q1012
  • 101700Z 12007KT 080V150 9999 SCT028 SCT050 13/08 Q1012
  • 101630Z 11005KT 070V150 9999 SCT025 SCT050 14/08 Q1012
  • 101600Z 13008KT 080V170 9999 SCT025 14/07 Q1012

TAF TAF LEHC
Valide du 10 à 15h jusqu'au 11 à 15h UTC


101400Z 1015/1115 10008KT 9999 SCT020 BKN060 TX11/1114Z TN06/1105Z
PROB40
TEMPO 1100/1107 0800 DZ BCFG VV001
TEMPO 1107/1115 RA BKN010
BECMG 1109/1111 31010KT



MET'MAP, la Météo Aéronautique d'un coup d'oeil ! - Copyright ORBIFLY Décembre 2007 - Disclaimer

ORBIFLY MET'MAP TEAM :

Programmation & Développement : Alexandra Zaïnal
Sur une idée originale de : Baudouin d'Aumeries
Assistance à la programmation : Marc-Olivier Méhu
Soutien technique & logistique : Manuel Goepfert

Contact : metmap@orbifly.com




SOURCES & CREDITS :

   NOAA